Tiempo atmosférico en la estación meteorológica de Segorbe, Castelló/Castellón (460 m.)



Fecha
DESCASC
Temp. máxima en grados centígrados (hora)
DESCASC
Temp. mínima en grados centígrados (hora)
DESCASC
Temp. media en grados centígrados
DESCASC
Racha de viento máxima en m/sg (hora)
DESCASC
Velocidad máxima media en intervalos de 10 minutos(hora)
DESCASC
Precipitaciones diarias en mm
DESCASC
Precipitaciones de 00:00 a 06:00 en mm
DESCASC
Precipitaciones de 06:00 a 12:00 en mm
DESCASC
Precipitaciones de 12:00 a 18:00 en mm
DESCASC
Precipitaciones de 18:00 a 24:00 en mm
DESCASC
21-02-2019 15.7 (14:10) 1.1 (07:50) 8.4 4.72 (15:40) 2.78 (16:10) 0 0 0 0 0
20-02-2019 14.6 (14:00) 0.7 (08:10) 7.7 5.83 (16:30) 3.33 (16:10) 0 0 0 0 0
19-02-2019 14.9 (14:30) -0.2 (07:30) 7.3 5.56 (14:40) 2.78 (00:10) 0 0 0 0 0
18-02-2019 14.7 (14:00) 2.8 (08:00) 8.7 6.67 (14:40) 2.78 (23:59) 0 0 0 0 0
17-02-2019 14.9 (13:30) -1.7 (-00:0) 6.6 6.94 (14:40) 3.06 (04:10) 0 0 0 0 0
16-02-2019 15.8 (15:00) 0.3 (00:00) 8.1 4.44 (14:40) 3.33 (21:30) 0 0 0 0 0
15-02-2019 13.6 (14:50) -0.7 (-00:0) 6.5 4.72 (14:20) 2.78 (15:10) 0 0 0 0 0
14-02-2019 13.5 (15:10) 1.8 (00:00) 7.6 5.28 (13:30) 3.33 (00:30) 0 0 0 0 0
13-02-2019 14.6 (14:30) 0.1 (00:00) 7.4 5.56 (14:00) 3.06 (13:30) 0 0 0 0 0
12-02-2019 14.7 (14:10) 0.4 (00:00) 7.5 5.83 (13:30) 3.33 (07:00) 0 0 0 0 0
11-02-2019 16.4 (13:40) 5 (00:00) 10.7 10 (09:40) 5.56 (09:10) 0 0 0 0 0
10-02-2019 17 (16:00) 3.5 (00:00) 10.3 11.11 (16:20) 4.72 (16:10) 0 0 0 0 0
09-02-2019 18.5 (13:20) 2.4 (00:00) 10.5 6.11 (15:20) 3.61 (01:40) 0 0 0 0 0
08-02-2019 18.7 (14:50) 2.1 (00:00) 10.4 5.28 (14:10) 2.78 (19:30) 0 0 0 0 0
07-02-2019 21.3 (14:10) 4.1 (00:00) 12.7 8.89 (10:40) 4.72 (10:10) 0 0 0 0 0
06-02-2019 18.9 (14:30) 4.5 (00:00) 11.7 5.83 (15:30) 3.33 (15:20) 0 0 0 0 0
05-02-2019 20 (15:10) 7.7 (00:00) 13.8 8.33 (15:50) 4.44 (10:20) 0 0 0 0 0
04-02-2019 15.6 (13:20) -0.7 (-00:0) 7.5 10.28 (01:50) 5 (00:10) 0 0 0 0 0
03-02-2019 9.1 (13:30) 3.9 (00:00) 6.5 23.33 (04:30) 12.5 (15:00) 0 0 0 0 0
02-02-2019 11.5 (14:10) 4.8 (00:00) 8.2 22.5 (15:20) 12.22 (15:10) 0 0 0 0 0
01-02-2019 16.3 (11:40) 6.8 (00:00) 11.5 16.94 (19:20) 6.94 (12:10) 1 1 0 0 0
31-01-2019 18.7 (14:00) 8.1 (00:00) 13.4 15 (13:00) 7.78 (13:10) 0 0 0 0 0
30-01-2019 14.7 (14:10) 2.3 (00:00) 8.5 10.83 (22:20) 5.28 (22:10) 0 0 0 0 0
29-01-2019 15.5 (15:30) 4.9 (00:00) 10.2 12.22 (21:30) 5.56 (21:20) 0 0 0 0 0
28-01-2019 15.7 (14:40) 4.1 (00:00) 9.9 22.78 (14:50) 11.39 (15:00) 0 0 0 0 0
27-01-2019 14.8 (13:00) 3.4 (00:00) 9.1 17.22 (11:50) 8.61 (11:30) 0 0 0 0 0
26-01-2019 17.7 (13:10) 3.2 (00:00) 10.5 12.78 (01:00) 5.56 (00:50) 0 0 0 0 0
25-01-2019 17.5 (13:30) 9 (00:00) 13.3 14.72 (16:10) 7.5 (15:10) 0 0 0 0 0
24-01-2019 12.8 (00:00) 8.5 (00:00) 10.7 18.89 (06:40) 10.83 (06:40) 0 0 0 0 0

Gráficas

Temp. máximas Temp. mínimas Temp. medias Precipitaciones Rachas de viento máximas Velocidades máximas media en intervalos de 10 minutos

Datos horarios

Fecha y hora oficial Temperatura (ºC) Velocidad del viento (km/h) Dirección del viento Racha (km/h) Dirección de racha Precipitación (mm) Presión (hPa) Tendencia (hPa) Humedad (%)
2019-02-22 23:00:00 5.7 3 Oeste 12 Sudoeste 0 -- -- 56
2019-02-22 22:00:00 7 5 Sudoeste 16 Sudoeste 0 -- -- 54
2019-02-22 21:00:00 7 3 Sudoeste 14 Sudoeste 0 -- -- 55
2019-02-22 20:00:00 9.2 5 Sudoeste 17 Sudoeste 0 -- -- 49
2019-02-22 19:00:00 11.1 9 Sudoeste 13 Sudoeste 0 -- -- 45
2019-02-22 18:00:00 17.7 6 Sudeste 15 Sur 0 -- -- 29
2019-02-22 17:00:00 19.9 5 Oeste 18 Sudoeste 0 -- -- 24
2019-02-22 16:00:00 22.1 5 Oeste 14 Noroeste 0 -- -- 21
2019-02-22 15:00:00 22.9 4 Noroeste 15 Sur 0 -- -- 22
2019-02-22 14:00:00 22.2 8 Sur 14 Sur 0 -- -- 21
2019-02-22 13:00:00 21.8 5 Noroeste 12 Oeste 0 -- -- 22
2019-02-22 12:00:00 20.1 3 Sur 8 Sudeste 0 -- -- 30
2019-02-22 11:00:00 16.4 2 Sudeste 5 Sudoeste 0 -- -- 48
2019-02-22 10:00:00 10.1 3 Sudoeste 10 Sudoeste 0 -- -- 68
2019-02-22 09:00:00 5.8 3 Sudoeste 15 Sudoeste 0 -- -- 74
2019-02-22 08:00:00 4.2 11 Sudoeste 17 Sudoeste 0 -- -- 76
2019-02-22 07:00:00 4.1 12 Sudoeste 18 Sudoeste 0 -- -- 78
2019-02-22 06:00:00 4.1 10 Sudoeste 14 Sudoeste 0 -- -- 81
2019-02-22 05:00:00 3.4 2 Oeste 13 Sudoeste 0 -- -- 83
2019-02-22 04:00:00 3.3 2 Oeste 12 Oeste 0 -- -- 83
2019-02-22 03:00:00 3.4 5 Oeste 15 Sudoeste 0 -- -- 83
2019-02-22 02:00:00 3.8 7 Sudoeste 14 Sudoeste 0 -- -- 81
2019-02-22 01:00:00 3.5 3 Sudoeste 9 Sudoeste 0 -- -- 87
2019-02-22 00:00:00 4.3 6 Oeste 13 Sudoeste 0 -- -- 92
2019-02-21 23:00:00 4.1 3 Sudoeste 14 Sudoeste 0 -- -- 93
2019-02-21 22:00:00 4.2 4 Oeste 12 Sudoeste 0 -- -- 91
2019-02-21 21:00:00 5.2 9 Sudoeste 13 Sudoeste 0 -- -- 89
2019-02-21 20:00:00 5.9 7 Sudoeste 12 Sudoeste 0 -- -- 86
2019-02-21 19:00:00 8.3 4 Sur 9 Sudeste 0 -- -- 77
2019-02-21 18:00:00 11.8 4 Sudeste 15 Sudeste 0 -- -- 70
2019-02-21 17:00:00 13.6 9 Sudeste 17 Este 0 -- -- 64
2019-02-21 16:00:00 14.9 7 Sudeste 17 Sudeste 0 -- -- 60
2019-02-21 15:00:00 15.4 8 Sudeste 17 Sudeste 0 -- -- 56
2019-02-21 14:00:00 15.5 5 Sudeste 14 Sudeste 0 -- -- 56
2019-02-21 13:00:00 14.9 7 Este 16 Este 0 -- -- 58
2019-02-21 12:00:00 13.4 5 Nordeste 13 Nordeste 0 -- -- 63
2019-02-21 11:00:00 11.4 3 Sudeste 7 Sudeste 0 -- -- 66
2019-02-21 10:00:00 7.4 0 Calma 6 Sudoeste 0 -- -- 85
2019-02-21 09:00:00 2.5 6 Sudoeste 9 Sudoeste 0 -- -- 97
2019-02-21 08:00:00 1.1 5 Sudoeste 11 Sudoeste 0 -- -- 95
2019-02-21 07:00:00 1.8 8 Sudoeste 12 Sudoeste 0 -- -- 95
2019-02-21 06:00:00 2.6 6 Sudoeste 11 Sudoeste 0 -- -- 94
2019-02-21 05:00:00 2.6 7 Sudoeste 10 Sudoeste 0 -- -- 94
2019-02-21 04:00:00 3.1 6 Sudoeste 8 Sudoeste 0 -- -- 94
2019-02-21 03:00:00 3.8 5 Sudoeste 8 Sudoeste 0 -- -- 90
2019-02-21 02:00:00 6.7 3 Sudoeste 9 Noroeste 0 -- -- 84
2019-02-21 01:00:00 8.2 4 Oeste 10 Noroeste 0 -- -- 82
2019-02-21 00:00:00 8.5 3 Oeste 9 Sudoeste 0 -- -- 82
2019-02-20 23:00:00 8.5 3 Sudoeste 9 Oeste 0 -- -- 82
2019-02-20 22:00:00 8.4 0 Calma 4 Sudoeste 0 -- -- 85
2019-02-20 21:00:00 8.5 0 Calma 7 Sur 0 -- -- 85
2019-02-20 20:00:00 8.3 3 Sur 8 Sur 0 -- -- 86
2019-02-20 19:00:00 8.6 3 Sur 12 Sudeste 0 -- -- 80
2019-02-20 18:00:00 10.5 6 Sudeste 15 Este 0 -- -- 77
2019-02-20 17:00:00 12.1 9 Sudeste 21 Sudeste 0 -- -- 68
2019-02-20 16:00:00 13.5 10 Sudeste 19 Este 0 -- -- 61
2019-02-20 15:00:00 14.2 8 Sudeste 19 Este 0 -- -- 57
2019-02-20 14:00:00 14.6 5 Sur 16 Sudeste 0 -- -- 53
2019-02-20 13:00:00 13.8 5 Sur 20 Este 0 -- -- 58
2019-02-20 12:00:00 12.1 6 Este 14 Nordeste 0 -- -- 65
2019-02-20 11:00:00 10.7 4 Este 8 Nordeste 0 -- -- 67
2019-02-20 10:00:00 7.4 0 Calma 2 Nordeste 0 -- -- 84
2019-02-20 09:00:00 2.1 0 Calma 8 Sudoeste 0 -- -- 97
2019-02-20 08:00:00 0.8 4 Sudoeste 8 Sudoeste 0 -- -- 94
2019-02-20 07:00:00 1.8 6 Sudoeste 11 Sudoeste 0 -- -- 95
2019-02-20 06:00:00 1.7 8 Sudoeste 12 Sudoeste 0 -- -- 95
2019-02-20 05:00:00 1.9 7 Sudoeste 12 Sudoeste 0 -- -- 93
2019-02-20 04:00:00 2.6 9 Sudoeste 12 Sudoeste 0 -- -- 93
2019-02-20 03:00:00 3.1 9 Sudoeste 13 Sudoeste 0 -- -- 92
2019-02-20 02:00:00 3.7 9 Sudoeste 13 Sudoeste 0 -- -- 90
2019-02-20 01:00:00 4.7 8 Sudoeste 11 Sudoeste 0 -- -- 89
2019-02-20 00:00:00 6.1 2 Sudoeste 8 Sudoeste 0 -- -- 90
2019-02-19 23:00:00 6.3 4 Oeste 9 Sudoeste 0 -- -- 93
2019-02-19 22:00:00 4.5 2 Sudoeste 7 Sudoeste 0 -- -- 94
2019-02-19 21:00:00 4.1 2 Oeste 13 Sudoeste 0 -- -- 90
2019-02-19 20:00:00 4.7 7 Sudoeste 14 Sudoeste 0 -- -- 86
2019-02-19 19:00:00 6.8 5 Sudoeste 10 Sudoeste 0 -- -- 78
2019-02-19 18:00:00 10.4 4 Sudeste 15 Sudeste 0 -- -- 66
2019-02-19 17:00:00 11.7 7 Sudeste 17 Sudeste 0 -- -- 59
2019-02-19 16:00:00 13.6 6 Sudeste 20 Este 0 -- -- 52
2019-02-19 15:00:00 14.5 8 Sudeste 20 Sudeste 0 -- -- 48
2019-02-19 14:00:00 14.3 6 Sudeste 16 Sudeste 0 -- -- 48
2019-02-19 13:00:00 13.8 7 Este 15 Este 0 -- -- 51
2019-02-19 12:00:00 12.9 6 Este 12 Nordeste 0 -- -- 57
2019-02-19 11:00:00 10.5 3 Nordeste 7 Nordeste 0 -- -- 60
2019-02-19 10:00:00 5.7 0 Calma 9 Sudoeste 0 -- -- 80
2019-02-19 09:00:00 0.4 2 Oeste 11 Sudoeste 0 -- -- 95
2019-02-19 08:00:00 -0.1 3 Sudoeste 10 Sudoeste 0 -- -- 94
2019-02-19 07:00:00 0.2 0 Calma 12 Sudoeste 0 -- -- 95
2019-02-19 06:00:00 0.4 4 Sudoeste 11 Sudoeste 0 -- -- 94
2019-02-19 05:00:00 1.4 4 Sudoeste 12 Sudoeste 0 -- -- 95
2019-02-19 04:00:00 1.5 4 Sudoeste 13 Sudoeste 0 -- -- 94
2019-02-19 03:00:00 1.9 3 Sudoeste 8 Sudoeste 0 -- -- 92
2019-02-19 02:00:00 3.3 4 Sudoeste 13 Sudoeste 0 -- -- 93
2019-02-19 01:00:00 4.6 8 Sudoeste 14 Sudoeste 0 -- -- 94
2019-02-19 00:00:00 3.4 10 Sudoeste 13 Sudoeste 0 -- -- 92
2019-02-18 23:00:00 4.6 10 Sudoeste 13 Sudoeste 0 -- -- 90
2019-02-18 22:00:00 6.5 8 Sudoeste 10 Sudoeste 0 -- -- 86
2019-02-18 21:00:00 8.5 3 Sudoeste 7 Sudoeste 0 -- -- 85
2019-02-18 20:00:00 7.6 2 Sur 5 Sur 0 -- -- 88
2019-02-18 19:00:00 7.2 3 Sur 8 Sudeste 0 -- -- 82
2019-02-18 18:00:00 10.8 0 Calma 13 Sudoeste 0 -- -- 73
2019-02-18 17:00:00 11.9 5 Sudeste 18 Sudeste 0 -- -- 71
2019-02-18 16:00:00 13.8 7 Este 18 Sudeste 0 -- -- 61
2019-02-18 15:00:00 14.6 6 Sudeste 24 Sudeste 0 -- -- 55
2019-02-18 14:00:00 14.7 9 Nordeste 18 Sudeste 0 -- -- 54
2019-02-18 13:00:00 13.8 7 Sudeste 18 Nordeste 0 -- -- 56
2019-02-18 12:00:00 12.9 6 Nordeste 13 Sudeste 0 -- -- 59
2019-02-18 11:00:00 10.3 2 Norte 6 Nordeste 0 -- -- 65
2019-02-18 10:00:00 7.2 0 Calma 4 Norte 0 -- -- 81
2019-02-18 09:00:00 4.4 0 Calma 5 Sudoeste 0 -- -- 93
2019-02-18 08:00:00 2.8 3 Sudoeste 10 Sudoeste 0 -- -- 91
2019-02-18 07:00:00 2.9 8 Sudoeste 13 Sudoeste 0 -- -- 90
2019-02-18 06:00:00 4.4 8 Sudoeste 10 Sudoeste 0 -- -- 88
2019-02-18 05:00:00 4.8 5 Sudoeste 10 Sudoeste 0 -- -- 88
2019-02-18 04:00:00 4.3 5 Sudoeste 11 Sudoeste 0 -- -- 90
2019-02-18 03:00:00 4.3 6 Sudoeste 11 Sudoeste 0 -- -- 89
2019-02-18 02:00:00 4.2 9 Sudoeste 13 Sudoeste 0 -- -- 89
2019-02-18 01:00:00 5.8 8 Sudoeste 12 Sudoeste 0 -- -- 83
2019-02-18 00:00:00 7.5 4 Sudoeste 6 Sudoeste 0 -- -- 82
2019-02-17 23:00:00 7.4 3 Sudoeste 5 Sudoeste 0 -- -- 84
2019-02-17 22:00:00 7.1 3 Sudoeste 6 Sudoeste 0 -- -- 86
2019-02-17 21:00:00 6.2 3 Sudoeste 8 Sudoeste 0 -- -- 88
2019-02-17 20:00:00 5 5 Sudoeste 9 Sudoeste 0 -- -- 87
2019-02-17 19:00:00 7.6 4 Sudoeste 9 Sur 0 -- -- 78
2019-02-17 18:00:00 10.2 4 Sudeste 15 Sudeste 0 -- -- 74
2019-02-17 17:00:00 12 6 Sudeste 18 Este 0 -- -- 67
2019-02-17 16:00:00 13.5 9 Este 22 Este 0 -- -- 59
2019-02-17 15:00:00 14.9 8 Sudeste 25 Este 0 -- -- 51
2019-02-17 14:00:00 14.8 5 Sudeste 17 Este 0 -- -- 41
2019-02-17 13:00:00 14.2 7 Este 13 Nordeste 0 -- -- 35
2019-02-17 12:00:00 13.5 5 Sudeste 10 Sudeste 0 -- -- 35
2019-02-17 11:00:00 10.7 2 Sudeste 5 Sudeste 0 -- -- 47
2019-02-17 10:00:00 5.2 0 Calma 7 Sudoeste 0 -- -- 48
2019-02-17 09:00:00 -0.6 2 Sudoeste 12 Sudoeste 0 -- -- 63
2019-02-17 08:00:00 -1.1 6 Sudoeste 13 Sudoeste 0 -- -- 52
2019-02-17 07:00:00 -1.4 5 Sudoeste 14 Sudoeste 0 -- -- 58
2019-02-17 06:00:00 -1.2 5 Sudoeste 12 Sudoeste 0 -- -- 56
2019-02-17 05:00:00 0.5 5 Sudoeste 14 Sudoeste 0 -- -- 49
2019-02-17 04:00:00 0.6 10 Sudoeste 14 Sudoeste 0 -- -- 51
2019-02-17 03:00:00 0.7 7 Sudoeste 14 Sudoeste 0 -- -- 53
2019-02-17 02:00:00 1.3 10 Sudoeste 15 Sudoeste 0 -- -- 57
2019-02-17 01:00:00 1.7 8 Sudoeste 14 Sudoeste 0 -- -- 66
2019-02-17 00:00:00 0.7 8 Sudoeste 12 Sudoeste 0 -- -- 79
2019-02-16 23:00:00 1.8 4 Sudoeste 15 Sudoeste 0 -- -- 79
2019-02-16 22:00:00 1.9 11 Sudoeste 15 Sudoeste 0 -- -- 73
2019-02-16 21:00:00 2.6 9 Sudoeste 13 Sudoeste 0 -- -- 62
2019-02-16 20:00:00 3.8 3 Sur 15 Sudoeste 0 -- -- 63
2019-02-16 19:00:00 7.2 3 Sur 14 Oeste 0 -- -- 57
2019-02-16 18:00:00 10 6 Sudoeste 12 Sudoeste 0 -- -- 50
2019-02-16 17:00:00 13.3 6 Sudeste 12 Sudeste 0 -- -- 34
2019-02-16 16:00:00 15.1 6 Este 14 Sudeste 0 -- -- 23
2019-02-16 15:00:00 15.8 6 Sudeste 16 Sudeste 0 -- -- 18
2019-02-16 14:00:00 15.6 5 Sur 14 Sudeste 0 -- -- 27
2019-02-16 13:00:00 14.7 5 Sudeste 13 Sur 0 -- -- 31
2019-02-16 12:00:00 13.7 4 Sudeste 10 Sudeste 0 -- -- 40
2019-02-16 11:00:00 11 4 Sudeste 7 Sudeste 0 -- -- 65
2019-02-16 10:00:00 4.5 2 Sudoeste 5 Sudoeste 0 -- -- 95
2019-02-16 09:00:00 0.7 0 Calma 10 Sudoeste 0 -- -- 97
2019-02-16 08:00:00 0.4 5 Sudoeste 12 Sudoeste 0 -- -- 96
2019-02-16 07:00:00 0.6 5 Oeste 12 Sudoeste 0 -- -- 96
2019-02-16 06:00:00 0.5 4 Sudoeste 9 Sudoeste 0 -- -- 96
2019-02-16 05:00:00 0.9 3 Sudoeste 10 Sudoeste 0 -- -- 95
2019-02-16 04:00:00 2.1 5 Sudoeste 9 Oeste 0 -- -- 96
2019-02-16 03:00:00 1.7 0 Calma 9 Sudoeste 0 -- -- 95
2019-02-16 02:00:00 1.9 5 Sudoeste 12 Sudoeste 0 -- -- 94
2019-02-16 01:00:00 3 4 Sudoeste 7 Sudoeste 0 -- -- 93
2019-02-16 00:00:00 4.1 2 Sudoeste 9 Sudoeste 0 -- -- 96
2019-02-15 23:00:00 2.4 5 Sudoeste 8 Sudoeste 0 -- -- 94
2019-02-15 22:00:00 3.7 4 Sudoeste 8 Sudoeste 0 -- -- 92
2019-02-15 21:00:00 3.7 3 Sudoeste 6 Sudoeste 0 -- -- 92
2019-02-15 20:00:00 4.7 3 Sudoeste 6 Sur 0 -- -- 87
2019-02-15 19:00:00 7 3 Sudoeste 9 Sur 0 -- -- 81
2019-02-15 18:00:00 10.3 5 Sur 14 Sudoeste 0 -- -- 72
2019-02-15 17:00:00 12.1 6 Sudeste 14 Sudeste 0 -- -- 64
2019-02-15 16:00:00 13.5 5 Sudeste 17 Nordeste 0 -- -- 59
2019-02-15 15:00:00 13.3 8 Este 17 Sudeste 0 -- -- 57
2019-02-15 14:00:00 13.2 5 Este 15 Sudeste 0 -- -- 59
2019-02-15 13:00:00 12 5 Sudeste 17 Sudeste 0 -- -- 62
2019-02-15 12:00:00 11.1 5 Sudeste 12 Sudeste 0 -- -- 63
2019-02-15 11:00:00 9.4 4 Sudeste 6 Este 0 -- -- 71
2019-02-15 10:00:00 5.5 0 Calma 6 Sudoeste 0 -- -- 95
2019-02-15 09:00:00 1.1 2 Sudoeste 10 Sudoeste 0 -- -- 97
2019-02-15 08:00:00 -0.7 3 Oeste 7 Sudoeste 0 -- -- 96
2019-02-15 07:00:00 -0.3 0 Calma 6 Sudoeste 0 -- -- 96
2019-02-15 06:00:00 -0.5 0 Calma 8 Oeste 0 -- -- 95
2019-02-15 05:00:00 0.1 3 Sudoeste 8 Sudoeste 0 -- -- 95
2019-02-15 04:00:00 0.2 4 Sudoeste 9 Sudoeste 0 -- -- 95
2019-02-15 03:00:00 0.5 8 Sudoeste 12 Sudoeste 0 -- -- 96
2019-02-15 02:00:00 0.5 0 Calma 9 Sudoeste 0 -- -- 93
2019-02-15 01:00:00 1.5 6 Sudoeste 12 Sudoeste 0 -- -- 94
2019-02-15 00:00:00 1.8 9 Sudoeste 13 Sudoeste 0 -- -- 93
2019-02-14 23:00:00 2.4 8 Sudoeste 12 Sudoeste 0 -- -- 91
2019-02-14 22:00:00 2.6 4 Sudoeste 12 Sudoeste 0 -- -- 91
2019-02-14 21:00:00 3 9 Sudoeste 12 Sudoeste 0 -- -- 89
2019-02-14 20:00:00 3.7 4 Sudoeste 8 Sudoeste 0 -- -- 86
2019-02-14 19:00:00 5.4 3 Sudoeste 8 Sur 0 -- -- 80
2019-02-14 18:00:00 9.5 3 Sur 13 Sur 0 -- -- 67
2019-02-14 17:00:00 11.2 6 Sudeste 12 Sudeste 0 -- -- 58
2019-02-14 16:00:00 13 5 Sudeste 14 Sudoeste 0 -- -- 54
2019-02-14 15:00:00 13.3 4 Sur 13 Este 0 -- -- 53
2019-02-14 14:00:00 12.6 7 Este 19 Este 0 -- -- 55
2019-02-14 13:00:00 12.2 6 Nordeste 17 Nordeste 0 -- -- 55
2019-02-14 12:00:00 10.9 4 Sudeste 10 Este 0 -- -- 60
2019-02-14 11:00:00 11.4 4 Sudeste 9 Sudeste 0 -- -- 59
2019-02-14 10:00:00 7.2 0 Calma 9 Sudoeste 0 -- -- 79
2019-02-14 09:00:00 4.3 4 Sudoeste 9 Sudoeste 0 -- -- 93
2019-02-14 08:00:00 3.2 3 Oeste 9 Sudoeste 0 -- -- 93
2019-02-14 07:00:00 3.3 7 Sudoeste 10 Sudoeste 0 -- -- 92
2019-02-14 06:00:00 4 2 Oeste 6 Sudoeste 0 -- -- 90
2019-02-14 05:00:00 5.1 0 Calma 5 Sudeste 0 -- -- 89
2019-02-14 04:00:00 5.5 2 Sudeste 6 Sudeste 0 -- -- 89
2019-02-14 03:00:00 4.9 2 Sudoeste 10 Sudoeste 0 -- -- 92
2019-02-14 02:00:00 3.9 9 Sudoeste 12 Sudoeste 0 -- -- 93
2019-02-14 01:00:00 3.4 9 Sudoeste 14 Sudoeste 0 -- -- 93
2019-02-14 00:00:00 3.8 11 Sudoeste 13 Sudoeste 0 -- -- 93
2019-02-13 23:00:00 5 4 Sudoeste 9 Sudoeste 0 -- -- 91
2019-02-13 22:00:00 4.5 7 Sudoeste 9 Sudoeste 0 -- -- 92
2019-02-13 21:00:00 4.1 6 Sudoeste 10 Sudoeste 0 -- -- 92
2019-02-13 20:00:00 4.5 5 Sudoeste 9 Sudoeste 0 -- -- 90
2019-02-13 19:00:00 6.3 4 Sudoeste 7 Sudoeste 0 -- -- 83
2019-02-13 18:00:00 10.5 5 Sudeste 12 Sur 0 -- -- 74
2019-02-13 17:00:00 11.8 5 Sudeste 19 Sudeste 0 -- -- 64
2019-02-13 16:00:00 13 9 Sudeste 19 Sudeste 0 -- -- 59
2019-02-13 15:00:00 14 10 Sudeste 20 Este 0 -- -- 53
2019-02-13 14:00:00 14.4 9 Sudeste 20 Sudeste 0 -- -- 48
2019-02-13 13:00:00 14.1 8 Sudeste 18 Este 0 -- -- 48
2019-02-13 12:00:00 13.7 7 Sudeste 15 Este 0 -- -- 47
2019-02-13 11:00:00 11.8 3 Sudeste 8 Sudeste 0 -- -- 48
2019-02-13 10:00:00 6.3 0 Calma 6 Sudoeste 0 -- -- 78
2019-02-13 09:00:00 1.7 3 Sudoeste 9 Sudoeste 0 -- -- 91
2019-02-13 08:00:00 0.7 0 Calma 13 Sudoeste 0 -- -- 91
2019-02-13 07:00:00 0.6 4 Sudoeste 13 Sudoeste 0 -- -- 94
2019-02-13 06:00:00 0.2 0 Calma 9 Sudoeste 0 -- -- 93
2019-02-13 05:00:00 0.7 0 Calma 13 Sudoeste 0 -- -- 92
2019-02-13 04:00:00 0.6 9 Sudoeste 14 Sudoeste 0 -- -- 94
2019-02-13 03:00:00 0.2 4 Sudoeste 9 Sudoeste 0 -- -- 94
2019-02-13 02:00:00 0.6 2 Oeste 11 Sudoeste 0 -- -- 93
2019-02-13 01:00:00 1.5 0 Calma 8 Sudoeste 0 -- -- 93
2019-02-13 00:00:00 1.4 0 Calma 10 Sudoeste 0 -- -- 94
2019-02-12 23:00:00 1.1 2 Oeste 10 Sudoeste 0 -- -- 90
2019-02-12 22:00:00 2.1 5 Oeste 14 Sudoeste 0 -- -- 87
2019-02-12 21:00:00 2.5 10 Sudoeste 14 Sudoeste 0 -- -- 86
2019-02-12 20:00:00 3.2 5 Sudoeste 12 Sudoeste 0 -- -- 83
2019-02-12 19:00:00 5.2 6 Sudoeste 10 Sudoeste 0 -- -- 78
2019-02-12 18:00:00 10.3 3 Sur 16 Sudeste 0 -- -- 64
2019-02-12 17:00:00 12.4 9 Sudeste 17 Sudeste 0 -- -- 57
2019-02-12 16:00:00 14.1 6 Sudeste 18 Sudeste 0 -- -- 48
2019-02-12 15:00:00 14.4 6 Sudeste 18 Este 0 -- -- 47
2019-02-12 14:00:00 14.5 8 Sudeste 21 Este 0 -- -- 43
2019-02-12 13:00:00 14.2 8 Este 19 Este 0 -- -- 40
2019-02-12 12:00:00 13.4 7 Sudeste 16 Este 0 -- -- 40
2019-02-12 11:00:00 11.3 3 Sudeste 7 Sudeste 0 -- -- 51
2019-02-12 10:00:00 5.6 0 Calma 10 Sudoeste 0 -- -- 69
2019-02-12 09:00:00 1.1 4 Oeste 14 Sudoeste 0 -- -- 82
2019-02-12 08:00:00 0.8 9 Sudoeste 15 Sudoeste 0 -- -- 81
2019-02-12 07:00:00 0.6 12 Sudoeste 15 Sudoeste 0 -- -- 83
2019-02-12 06:00:00 0.5 4 Sudoeste 14 Sudoeste 0 -- -- 83
2019-02-12 05:00:00 1.3 8 Sudoeste 12 Sudoeste 0 -- -- 80
2019-02-12 04:00:00 1.8 6 Sudoeste 12 Sudoeste 0 -- -- 79
2019-02-12 03:00:00 3.8 3 Oeste 9 Noroeste 0 -- -- 71
2019-02-12 02:00:00 3.9 3 Oeste 8 Oeste 0 -- -- 71
2019-02-12 01:00:00 5.1 3 Oeste 12 Noroeste 0 -- -- 65
2019-02-12 00:00:00 6.1 4 Noroeste 16 Noroeste 0 -- -- 62
2019-02-11 23:00:00 6.2 5 Oeste 13 Noroeste 0 -- -- 63
2019-02-11 22:00:00 6.8 4 Oeste 12 Oeste 0 -- -- 60
2019-02-11 21:00:00 5.1 8 Sudoeste 13 Sudoeste 0 -- -- 76
2019-02-11 20:00:00 5.5 5 Sudoeste 10 Sudoeste 0 -- -- 80
2019-02-11 19:00:00 6.3 3 Sudoeste 10 Sudoeste 0 -- -- 76
2019-02-11 18:00:00 9.6 4 Sudoeste 9 Sudeste 0 -- -- 63
2019-02-11 17:00:00 12.1 4 Sudeste 18 Sudeste 0 -- -- 51
2019-02-11 16:00:00 13.3 8 Sudeste 23 Sudeste 0 -- -- 49
2019-02-11 15:00:00 14.2 11 Sudeste 23 Este 0 -- -- 48
2019-02-11 14:00:00 16.1 7 Sudeste 15 Sudeste 0 -- -- 39
2019-02-11 13:00:00 15.7 6 Este 18 Sudeste 0 -- -- 33
2019-02-11 12:00:00 15.2 3 Noroeste 21 Noroeste 0 -- -- 34
2019-02-11 11:00:00 13.9 10 Noroeste 30 Norte 0 -- -- 34
2019-02-11 10:00:00 11.2 13 Norte 36 Noroeste 0 -- -- 40
2019-02-11 09:00:00 9.4 13 Noroeste 33 Noroeste 0 -- -- 55
2019-02-11 08:00:00 9.2 15 Norte 32 Norte 0 -- -- 61
2019-02-11 07:00:00 9.5 13 Noroeste 27 Noroeste 0 -- -- 64
2019-02-11 06:00:00 9.8 13 Norte 28 Noroeste 0 -- -- 69
2019-02-11 05:00:00 6.8 5 Sudoeste 10 Sudeste 0 -- -- 84
2019-02-11 04:00:00 9.4 0 Calma 18 Sudoeste 0 -- -- 74
2019-02-11 03:00:00 10.5 8 Oeste 12 Oeste 0 -- -- 73
2019-02-11 02:00:00 10.1 2 Norte 13 Noroeste 0 -- -- 70
2019-02-11 01:00:00 11 5 Oeste 16 Oeste 0 -- -- 67
2019-02-11 00:00:00 11.9 10 Oeste 17 Sudoeste 0 -- -- 64
2019-02-10 23:00:00 12.1 6 Oeste 18 Oeste 0 -- -- 63
2019-02-10 22:00:00 12.2 5 Noroeste 18 Oeste 0 -- -- 61
2019-02-10 21:00:00 11.7 8 Oeste 16 Sudoeste 0 -- -- 59
2019-02-10 20:00:00 12.9 5 Oeste 17 Oeste 0 -- -- 56
2019-02-10 19:00:00 14.4 6 Oeste 30 Noroeste 0 -- -- 51
2019-02-10 18:00:00 16.2 14 Noroeste 30 Noroeste 0 -- -- 45
2019-02-10 17:00:00 16.6 12 Noroeste 40 Noroeste 0 -- -- 43
2019-02-10 16:00:00 17 15 Oeste 32 Oeste 0 -- -- 41
2019-02-10 15:00:00 15 6 Noroeste 16 Oeste 0 -- -- 46
2019-02-10 14:00:00 14 6 Oeste 14 Oeste 0 -- -- 48
2019-02-10 13:00:00 13.9 8 Noroeste 18 Norte 0 -- -- 45
2019-02-10 12:00:00 14.2 4 Oeste 15 Oeste 0 -- -- 46
2019-02-10 11:00:00 13.8 7 Oeste 19 Oeste 0 -- -- 48
2019-02-10 10:00:00 14.9 8 Oeste 32 Noroeste 0 -- -- 41
2019-02-10 09:00:00 13.7 10 Oeste 30 Noroeste 0 -- -- 35
2019-02-10 08:00:00 11.6 7 Oeste 22 Oeste 0 -- -- 46
2019-02-10 07:00:00 12.1 7 Oeste 22 Noroeste 0 -- -- 44
2019-02-10 06:00:00 12.6 12 Noroeste 28 Noroeste 0 -- -- 46
2019-02-10 05:00:00 10.5 12 Noroeste 26 Noroeste 0 -- -- 60
2019-02-10 04:00:00 9.2 8 Oeste 21 Oeste 0 -- -- 60
2019-02-10 03:00:00 5.6 8 Oeste 15 Oeste 0 -- -- 74
2019-02-10 02:00:00 3.5 0 Calma 15 Sudoeste 0 -- -- 87
2019-02-10 01:00:00 3.9 4 Oeste 15 Sudoeste 0 -- -- 87
2019-02-10 00:00:00 3.5 5 Sudoeste 12 Sudoeste 0 -- -- 93
2019-02-09 23:00:00 3.7 6 Sudoeste 12 Sudoeste 0 -- -- 92
2019-02-09 22:00:00 4.7 7 Sudoeste 14 Sudoeste 0 -- -- 92
2019-02-09 21:00:00 5 8 Sudoeste 13 Sudoeste 0 -- -- 91
2019-02-09 20:00:00 6.2 8 Sudoeste 11 Sudoeste 0 -- -- 87
2019-02-09 19:00:00 9.3 0 Calma 11 Sur 0 -- -- 85
2019-02-09 18:00:00 11.6 3 Sur 16 Sudeste 0 -- -- 77
2019-02-09 17:00:00 13.2 6 Sudeste 17 Este 0 -- -- 68
2019-02-09 16:00:00 15.3 7 Sudeste 22 Sudeste 0 -- -- 52
2019-02-09 15:00:00 17 9 Sudeste 20 Sudeste 0 -- -- 41
2019-02-09 14:00:00 18.3 8 Sudeste 19 Este 0 -- -- 37
2019-02-09 13:00:00 18 8 Este 18 Sudeste 0 -- -- 34
2019-02-09 12:00:00 17.6 5 Sudeste 13 Este 0 -- -- 38
2019-02-09 11:00:00 14 0 Calma 6 Oeste 0 -- -- 46
2019-02-09 10:00:00 7.1 3 Sudoeste 12 Sudoeste 0 -- -- 70
2019-02-09 09:00:00 4.5 5 Sudoeste 15 Sudoeste 0 -- -- 64
2019-02-09 08:00:00 3.5 10 Sudoeste 17 Sudoeste 0 -- -- 68
2019-02-09 07:00:00 3.8 6 Sudoeste 14 Sudoeste 0 -- -- 69
2019-02-09 06:00:00 4.8 5 Sudoeste 15 Sudoeste 0 -- -- 66
2019-02-09 05:00:00 4 10 Sudoeste 15 Sudoeste 0 -- -- 69
2019-02-09 04:00:00 4.7 11 Sudoeste 15 Sudoeste 0 -- -- 64
2019-02-09 03:00:00 4.5 8 Sudoeste 16 Sudoeste 0 -- -- 64
2019-02-09 02:00:00 4.2 10 Sudoeste 17 Sudoeste 0 -- -- 65
2019-02-09 01:00:00 2.6 11 Sudoeste 14 Sudoeste 0 -- -- 82
2019-02-09 00:00:00 2.7 2 Oeste 12 Sudoeste 0 -- -- 89
2019-02-08 23:00:00 3.5 3 Oeste 10 Sudoeste 0 -- -- 93
2019-02-08 22:00:00 4.2 4 Sudoeste 12 Sudoeste 0 -- -- 91
2019-02-08 21:00:00 5.2 8 Sudoeste 11 Sudoeste 0 -- -- 91
2019-02-08 20:00:00 6.7 6 Sudoeste 13 Sudoeste 0 -- -- 88
2019-02-08 19:00:00 8.2 6 Sudoeste 10 Sudoeste 0 -- -- 83
2019-02-08 18:00:00 12.1 4 Sudeste 15 Este 0 -- -- 76
2019-02-08 17:00:00 14.2 8 Sudeste 18 Sudeste 0 -- -- 66
2019-02-08 16:00:00 16.3 8 Sudeste 18 Sudeste 0 -- -- 52
2019-02-08 15:00:00 18.6 7 Sur 19 Sudoeste 0 -- -- 41
2019-02-08 14:00:00 18.3 5 Sur 17 Sudeste 0 -- -- 38
2019-02-08 13:00:00 16.5 8 Sudeste 14 Este 0 -- -- 45
2019-02-08 12:00:00 14.8 5 Sudeste 10 Este 0 -- -- 51
2019-02-08 11:00:00 12.1 0 Calma 5 Este 0 -- -- 60
2019-02-08 10:00:00 6.9 0 Calma 10 Sudoeste 0 -- -- 89
2019-02-08 09:00:00 2.8 3 Sudoeste 9 Sudoeste 0 -- -- 93
2019-02-08 08:00:00 3.2 3 Sudoeste 13 Sudoeste 0 -- -- 90
2019-02-08 07:00:00 2.9 9 Sudoeste 14 Sudoeste 0 -- -- 92
2019-02-08 06:00:00 2.3 0 Calma 13 Sudoeste 0 -- -- 93
2019-02-08 05:00:00 2.4 4 Sudoeste 9 Sudoeste 0 -- -- 90
2019-02-08 04:00:00 3.3 5 Sudoeste 11 Sudoeste 0 -- -- 89
2019-02-08 03:00:00 3.1 3 Oeste 13 Sudoeste 0 -- -- 87
2019-02-08 02:00:00 2.9 0 Calma 9 Sudoeste 0 -- -- 87
2019-02-08 01:00:00 3.4 5 Sudoeste 12 Sudoeste 0 -- -- 83
2019-02-08 00:00:00 4.7 7 Sudoeste 13 Sudoeste 0 -- -- 78
2019-02-07 23:00:00 4.9 9 Sudoeste 16 Sudoeste 0 -- -- 77
2019-02-07 22:00:00 5.3 11 Sudoeste 15 Sudoeste 0 -- -- 75
2019-02-07 21:00:00 5.9 5 Oeste 13 Sudoeste 0 -- -- 71
2019-02-07 20:00:00 7.3 9 Sudoeste 14 Sudoeste 0 -- -- 67
2019-02-07 19:00:00 8.8 8 Sudoeste 12 Sudoeste 0 -- -- 71
2019-02-07 18:00:00 13.6 4 Sur 13 Este 0 -- -- 56
2019-02-07 17:00:00 15.7 7 Sudeste 18 Sudeste 0 -- -- 47
2019-02-07 16:00:00 17.6 7 Sudeste 20 Sudeste 0 -- -- 40
2019-02-07 15:00:00 19.6 9 Sudeste 21 Este 0 -- -- 35
2019-02-07 14:00:00 20.7 5 Nordeste 17 Nordeste 0 -- -- 23
2019-02-07 13:00:00 20.1 6 Nordeste 26 Noroeste 0 -- -- 24
2019-02-07 12:00:00 18.4 12 Norte 30 Norte 0 -- -- 29
2019-02-07 11:00:00 17.2 15 Noroeste 32 Noroeste 0 -- -- 32
2019-02-07 10:00:00 14.7 14 Noroeste 24 Noroeste 0 -- -- 40
2019-02-07 09:00:00 10.4 4 Noroeste 12 Noroeste 0 -- -- 56
2019-02-07 08:00:00 9.5 4 Oeste 14 Oeste 0 -- -- 60
2019-02-07 07:00:00 11.3 9 Noroeste 23 Oeste 0 -- -- 55
2019-02-07 06:00:00 7.7 3 Oeste 13 Oeste 0 -- -- 68
2019-02-07 05:00:00 7.3 6 Oeste 15 Oeste 0 -- -- 68
2019-02-07 04:00:00 6.7 4 Sudoeste 14 Sudoeste 0 -- -- 76
2019-02-07 03:00:00 6.4 5 Sudoeste 13 Sudoeste 0 -- -- 79
2019-02-07 02:00:00 4.2 0 Calma 9 Sudoeste 0 -- -- 89
2019-02-07 01:00:00 4.8 4 Sudoeste 11 Sudoeste 0 -- -- 87
2019-02-07 00:00:00 5.8 3 Oeste 16 Sudoeste 0 -- -- 85
2019-02-06 23:00:00 5.7 6 Oeste 13 Sudoeste 0 -- -- 87
2019-02-06 22:00:00 6.1 10 Sudoeste 14 Sudoeste 0 -- -- 85
2019-02-06 21:00:00 6.3 10 Sudoeste 14 Sudoeste 0 -- -- 83
2019-02-06 20:00:00 7.1 8 Sudoeste 12 Sudoeste 0 -- -- 79
2019-02-06 19:00:00 8.6 10 Sudoeste 13 Sudoeste 0 -- -- 75
2019-02-06 18:00:00 12.4 3 Sudoeste 15 Sudeste 0 -- -- 65
2019-02-06 17:00:00 14.9 9 Sudeste 17 Sudeste 0 -- -- 55
2019-02-06 16:00:00 16.6 11 Sudeste 21 Sudeste 0 -- -- 51
2019-02-06 15:00:00 18.2 10 Sudeste 19 Este 0 -- -- 44
2019-02-06 14:00:00 18.6 7 Este 17 Nordeste 0 -- -- 45
2019-02-06 13:00:00 18.2 9 Este 16 Nordeste 0 -- -- 43
2019-02-06 12:00:00 17.6 5 Sudeste 11 Este 0 -- -- 45
2019-02-06 11:00:00 14.2 4 Sudeste 8 Sudeste 0 -- -- 60
2019-02-06 10:00:00 8.4 2 Sur 11 Sudoeste 0 -- -- 82
2019-02-06 09:00:00 5.1 4 Sudoeste 9 Sudoeste 0 -- -- 86
2019-02-06 08:00:00 4.8 0 Calma 9 Sudoeste 0 -- -- 87
2019-02-06 07:00:00 5.1 6 Sudoeste 13 Sudoeste 0 -- -- 85
2019-02-06 06:00:00 5.3 8 Sudoeste 13 Sudoeste 0 -- -- 85
2019-02-06 05:00:00 5.6 6 Sudoeste 14 Sudoeste 0 -- -- 82
2019-02-06 04:00:00 6.1 6 Sudoeste 13 Sudoeste 0 -- -- 80
2019-02-06 03:00:00 6.8 6 Sudoeste 9 Sudoeste 0 -- -- 77
2019-02-06 02:00:00 10.7 3 Oeste 13 Oeste 0 -- -- 63
2019-02-06 01:00:00 8.6 3 Oeste 13 Oeste 0 -- -- 71
2019-02-06 00:00:00 8.8 5 Oeste 10 Sudoeste 0 -- -- 70
2019-02-05 23:00:00 8.8 4 Oeste 12 Sudoeste 0 -- -- 70
2019-02-05 22:00:00 8.9 8 Sudoeste 12 Sudoeste 0 -- -- 69
2019-02-05 21:00:00 7.8 2 Oeste 14 Sudoeste 0 -- -- 73
2019-02-05 20:00:00 8 10 Sudoeste 13 Sudoeste 0 -- -- 73
2019-02-05 19:00:00 9 8 Sudoeste 14 Sudoeste 0 -- -- 71
2019-02-05 18:00:00 12.7 8 Sudoeste 12 Sudoeste 0 -- -- 61
2019-02-05 17:00:00 16.7 5 Sudeste 17 Sudeste 0 -- -- 45
2019-02-05 16:00:00 19 7 Este 30 Noroeste 0 -- -- 39
2019-02-05 15:00:00 19.9 6 Norte 19 Norte 0 -- -- 37
2019-02-05 14:00:00 19.4 6 Norte 21 Norte 0 -- -- 37
2019-02-05 13:00:00 18.4 8 Norte 22 Norte 0 -- -- 41
2019-02-05 12:00:00 17.3 10 Noroeste 19 Noroeste 0 -- -- 43
2019-02-05 11:00:00 15.3 12 Norte 28 Noroeste 0 -- -- 48
2019-02-05 10:00:00 13.3 13 Norte 25 Norte 0 -- -- 53
2019-02-05 09:00:00 10.1 11 Noroeste 23 Noroeste 0 -- -- 56
2019-02-05 08:00:00 10.1 6 Noroeste 26 Noroeste 0 -- -- 57
2019-02-05 07:00:00 10.8 11 Noroeste 22 Oeste 0 -- -- 50
2019-02-05 06:00:00 11.4 8 Noroeste 23 Norte 0 -- -- 52
2019-02-05 05:00:00 11.6 7 Noroeste 19 Norte 0 -- -- 55
2019-02-05 04:00:00 11.7 13 Norte 28 Noroeste 0 -- -- 55
2019-02-05 03:00:00 10.5 0 Calma 12 Noroeste 0 -- -- 55
2019-02-05 02:00:00 10.2 3 Noroeste 11 Oeste 0 -- -- 54
2019-02-05 01:00:00 9.1 5 Noroeste 12 Noroeste 0 -- -- 54
2019-02-05 00:00:00 7.8 3 Oeste 7 Oeste 0 -- -- 54
2019-02-04 23:00:00 4 0 Calma 11 Sudoeste 0 -- -- 65
2019-02-04 22:00:00 4 4 Sudoeste 11 Sudoeste 0 -- -- 67
2019-02-04 21:00:00 3.9 4 Sudoeste 11 Sudoeste 0 -- -- 65
2019-02-04 20:00:00 4 7 Sudoeste 13 Sudoeste 0 -- -- 62
2019-02-04 19:00:00 5.2 6 Sudoeste 13 Sudoeste 0 -- -- 58
2019-02-04 18:00:00 7.9 7 Sudoeste 10 Sudoeste 0 -- -- 53
2019-02-04 17:00:00 13.4 3 Oeste 23 Sudeste 0 -- -- 34
2019-02-04 16:00:00 14.9 4 Noroeste 17 Noroeste 0 -- -- 24
2019-02-04 15:00:00 15.2 6 Sudeste 16 Este 0 -- -- 27
2019-02-04 14:00:00 14.9 9 Sudeste 18 Sudeste 0 -- -- 26
2019-02-04 13:00:00 15.2 5 Sudeste 26 Noroeste 0 -- -- 21
2019-02-04 12:00:00 14.2 15 Noroeste 27 Noroeste 0 -- -- 21
2019-02-04 11:00:00 12.2 12 Norte 23 Noroeste 0 -- -- 27
2019-02-04 10:00:00 8.2 9 Noroeste 20 Noroeste 0 -- -- 32
2019-02-04 09:00:00 -0.5 4 Oeste 12 Sudoeste 0 -- -- 61
2019-02-04 08:00:00 -0.7 9 Sudoeste 14 Sudoeste 0 -- -- 59
2019-02-04 07:00:00 2.7 6 Sudoeste 10 Sudoeste 0 -- -- 46
2019-02-04 06:00:00 3.8 3 Noroeste 27 Norte 0 -- -- 42
2019-02-04 05:00:00 4.8 14 Norte 33 Norte 0 -- -- 44
2019-02-04 04:00:00 4.6 13 Norte 35 Noroeste 0 -- -- 45
2019-02-04 03:00:00 4.3 13 Noroeste 34 Noroeste 0 -- -- 44
2019-02-04 02:00:00 4.1 13 Noroeste 37 Noroeste 0 -- -- 46
2019-02-04 01:00:00 4.3 12 Noroeste 31 Noroeste 0 -- -- 47
2019-02-04 00:00:00 4.7 15 Noroeste 37 Norte 0 -- -- 42
2019-02-03 23:00:00 5.2 18 Norte 38 Noroeste 0 -- -- 42
2019-02-03 22:00:00 5 14 Norte 34 Norte 0 -- -- 44
2019-02-03 21:00:00 5.2 10 Norte 41 Norte 0 -- -- 43
2019-02-03 20:00:00 5.7 24 Norte 54 Noroeste 0 -- -- 39
2019-02-03 19:00:00 6.2 21 Norte 49 Norte 0 -- -- 36
2019-02-03 18:00:00 6.9 27 Norte 48 Norte 0 -- -- 33
2019-02-03 17:00:00 7.7 27 Norte 67 Noroeste 0 -- -- 30
2019-02-03 16:00:00 8.5 29 Norte 69 Noroeste 0 -- -- 31
2019-02-03 15:00:00 8.6 45 Norte 75 Noroeste 0 -- -- 27
2019-02-03 14:00:00 9.1 27 Norte 67 Noroeste 0 -- -- 27
2019-02-03 13:00:00 8.9 26 Norte 57 Norte 0 -- -- 30
2019-02-03 12:00:00 8.1 22 Norte 70 Noroeste 0 -- -- 32
2019-02-03 11:00:00 7.2 29 Norte 62 Noroeste 0 -- -- 38
2019-02-03 10:00:00 6.5 22 Norte 57 Noroeste 0 -- -- 37
2019-02-03 09:00:00 4.6 18 Norte 63 Noroeste 0 -- -- 42
2019-02-03 08:00:00 4 23 Norte 75 Noroeste 0 -- -- 41
2019-02-03 07:00:00 4.4 34 Norte 81 Noroeste 0 -- -- 44
2019-02-03 06:00:00 4.1 31 Norte 75 Norte 0 -- -- 43
2019-02-03 05:00:00 4.4 30 Norte 84 Noroeste 0 -- -- 47
2019-02-03 04:00:00 4.3 28 Norte 68 Norte 0 -- -- 53
2019-02-03 03:00:00 4.8 30 Norte 66 Norte 0 -- -- 49
2019-02-03 02:00:00 4.8 34 Norte 67 Noroeste 0 -- -- 51
2019-02-03 01:00:00 5 34 Norte 62 Norte 0 -- -- 50
2019-02-03 00:00:00 5 36 Norte 64 Norte 0 -- -- 50
2019-02-02 23:00:00 5.2 36 Norte 73 Noroeste 0 -- -- 46
2019-02-02 22:00:00 5.3 31 Norte 61 Noroeste 0 -- -- 44
2019-02-02 21:00:00 5.6 36 Norte 62 Noroeste 0 -- -- 43
2019-02-02 20:00:00 6.2 31 Norte 74 Norte 0 -- -- 40
2019-02-02 19:00:00 7 30 Norte 65 Norte 0 -- -- 36
2019-02-02 18:00:00 7.7 36 Norte 62 Norte 0 -- -- 34
2019-02-02 17:00:00 9 27 Norte 77 Norte 0 -- -- 33
2019-02-02 16:00:00 9.4 36 Norte 81 Noroeste 0 -- -- 39
2019-02-02 15:00:00 10.3 37 Norte 73 Norte 0 -- -- 36
2019-02-02 14:00:00 11.3 25 Noroeste 65 Noroeste 0 -- -- 34
2019-02-02 13:00:00 9.9 30 Norte 63 Noroeste 0 -- -- 36
2019-02-02 12:00:00 10.6 24 Norte 68 Noroeste 0 -- -- 38
2019-02-02 11:00:00 9.3 37 Norte 76 Noroeste 0 -- -- 40
2019-02-02 10:00:00 9 18 Norte 58 Norte 0 -- -- 43
2019-02-02 09:00:00 7.9 21 Noroeste 42 Noroeste 0 -- -- 44
2019-02-02 08:00:00 5.3 9 Oeste 24 Oeste 0 -- -- 53
2019-02-02 07:00:00 7 11 Noroeste 31 Noroeste 0 -- -- 49
2019-02-02 06:00:00 6.8 13 Oeste 36 Noroeste 0 -- -- 53
2019-02-02 05:00:00 7 13 Noroeste 44 Noroeste 0 -- -- 54
2019-02-02 04:00:00 7 13 Noroeste 48 Noroeste 0 -- -- 55
2019-02-02 03:00:00 7.2 16 Noroeste 39 Noroeste 0 -- -- 55
2019-02-02 02:00:00 7.2 17 Noroeste 47 Oeste 0 -- -- 57
2019-02-02 01:00:00 7.3 18 Noroeste 44 Noroeste 0 -- -- 57
2019-02-02 00:00:00 6.9 21 Noroeste 40 Oeste 0 -- -- 61
2019-02-01 23:00:00 7.1 19 Noroeste 48 Noroeste 0 -- -- 57
2019-02-01 22:00:00 7.1 16 Noroeste 44 Noroeste 0 -- -- 59
2019-02-01 21:00:00 7.6 11 Oeste 38 Noroeste 0 -- -- 56
2019-02-01 20:00:00 8.4 10 Oeste 61 Sur 0 -- -- 62
2019-02-01 19:00:00 10.2 14 Noroeste 36 Noroeste 0 -- -- 52
2019-02-01 18:00:00 11 15 Noroeste 36 Noroeste 0 -- -- 49
2019-02-01 17:00:00 12.1 20 Noroeste 43 Norte 0 -- -- 42
2019-02-01 16:00:00 12.9 13 Noroeste 47 Noroeste 0 -- -- 43
2019-02-01 15:00:00 13.9 14 Noroeste 44 Sudoeste 0 -- -- 37
2019-02-01 14:00:00 14.4 19 Noroeste 42 Noroeste 0 -- -- 35
2019-02-01 13:00:00 13.9 14 Noroeste 51 Noroeste 0 -- -- 42
2019-02-01 12:00:00 16.2 15 Noroeste 30 Noroeste 0 -- -- 37
2019-02-01 11:00:00 14.7 20 Noroeste 41 Noroeste 0 -- -- 42
2019-02-01 10:00:00 12.3 10 Noroeste 33 Noroeste 0 -- -- 52
2019-02-01 09:00:00 13 8 Noroeste 31 Noroeste 0 -- -- 67
2019-02-01 08:00:00 13 9 Noroeste 47 Oeste 0 -- -- 67
2019-02-01 07:00:00 13.3 12 Noroeste 49 Noroeste 0 -- -- 66
2019-02-01 06:00:00 13.2 11 Oeste 52 Noroeste 0 -- -- 68
2019-02-01 05:00:00 12.6 6 Oeste 33 Sudoeste 0 -- -- 74
2019-02-01 04:00:00 12 4 Oeste 30 Oeste 0.2 -- -- 78
2019-02-01 03:00:00 11.9 8 Oeste 33 Oeste 0.8 -- -- 82
2019-02-01 02:00:00 13.3 7 Noroeste 28 Noroeste 0 -- -- 69
2019-02-01 01:00:00 13.2 7 Noroeste 26 Oeste 0 -- -- 62
2019-02-01 00:00:00 13.4 11 Noroeste 35 Oeste 0 -- -- 63
2019-01-31 23:00:00 12.4 9 Oeste 24 Noroeste 0 -- -- 78
2019-01-31 22:00:00 13.5 9 Oeste 37 Oeste 0 -- -- 67
2019-01-31 21:00:00 13.8 9 Noroeste 26 Oeste 0 -- -- 67
2019-01-31 20:00:00 13.6 3 Oeste 23 Noroeste 0 -- -- 63
2019-01-31 19:00:00 13.7 6 Oeste 32 Noroeste 0 -- -- 64
2019-01-31 18:00:00 14.4 12 Noroeste 36 Noroeste 0 -- -- 60
2019-01-31 17:00:00 14.8 19 Noroeste 40 Oeste 0 -- -- 60
2019-01-31 16:00:00 16.9 14 Noroeste 40 Noroeste 0 -- -- 51
2019-01-31 15:00:00 17.5 13 Noroeste 42 Noroeste 0 -- -- 48
2019-01-31 14:00:00 18.7 17 Noroeste 53 Noroeste 0 -- -- 44
2019-01-31 13:00:00 18.4 24 Noroeste 54 Noroeste 0 -- -- 40
2019-01-31 12:00:00 17.8 22 Noroeste 41 Noroeste 0 -- -- 44
2019-01-31 11:00:00 16.5 19 Noroeste 35 Oeste 0 -- -- 53
2019-01-31 10:00:00 14 11 Noroeste 26 Oeste 0 -- -- 61
2019-01-31 09:00:00 12.3 6 Oeste 24 Oeste 0 -- -- 66
2019-01-31 08:00:00 12.1 10 Oeste 26 Oeste 0 -- -- 64
2019-01-31 07:00:00 10.8 8 Oeste 16 Noroeste 0 -- -- 72
2019-01-31 06:00:00 11.7 10 Noroeste 29 Noroeste 0 -- -- 67
2019-01-31 05:00:00 9.9 3 Noroeste 13 Nordeste 0 -- -- 73
2019-01-31 04:00:00 9.9 4 Sudeste 10 Oeste 0 -- -- 70
2019-01-31 03:00:00 9.6 5 Noroeste 22 Oeste 0 -- -- 69
2019-01-31 02:00:00 9.6 3 Noroeste 33 Noroeste 0 -- -- 64
2019-01-31 01:00:00 8.5 12 Noroeste 33 Noroeste 0 -- -- 64
2019-01-31 00:00:00 8.6 6 Oeste 30 Oeste 0 -- -- 55
2019-01-30 23:00:00 9.7 10 Noroeste 39 Noroeste 0 -- -- 47
2019-01-30 22:00:00 9.7 13 Noroeste 34 Noroeste 0 -- -- 42
2019-01-30 21:00:00 9.7 14 Noroeste 38 Noroeste 0 -- -- 39
2019-01-30 20:00:00 9 6 Oeste 18 Noroeste 0 -- -- 42
2019-01-30 19:00:00 9.8 7 Oeste 18 Noroeste 0 -- -- 41
2019-01-30 18:00:00 10.9 5 Oeste 25 Norte 0 -- -- 36
2019-01-30 17:00:00 11.7 6 Noroeste 19 Norte 0 -- -- 37
2019-01-30 16:00:00 13.6 3 Sudoeste 12 Norte 0 -- -- 33
2019-01-30 15:00:00 14.1 4 Norte 13 Norte 0 -- -- 33
2019-01-30 14:00:00 14.4 5 Sudeste 15 Noroeste 0 -- -- 31
2019-01-30 13:00:00 14 5 Norte 19 Noroeste 0 -- -- 33
2019-01-30 12:00:00 12.6 12 Norte 22 Noroeste 0 -- -- 33
2019-01-30 11:00:00 10.5 13 Norte 25 Norte 0 -- -- 40
2019-01-30 10:00:00 2.4 4 Sudoeste 9 Sudoeste 0 -- -- 75
2019-01-30 09:00:00 2.5 0 Calma 12 Sudoeste 0 -- -- 71
2019-01-30 08:00:00 3.7 8 Sudoeste 16 Noroeste 0 -- -- 65
2019-01-30 07:00:00 7.4 4 Oeste 34 Norte 0 -- -- 50
2019-01-30 06:00:00 7.3 4 Noroeste 22 Norte 0 -- -- 49
2019-01-30 05:00:00 8.7 16 Norte 35 Norte 0 -- -- 44
2019-01-30 04:00:00 9.1 13 Norte 26 Norte 0 -- -- 42
2019-01-30 03:00:00 8.6 4 Noroeste 30 Noroeste 0 -- -- 43
2019-01-30 02:00:00 9.5 10 Noroeste 23 Noroeste 0 -- -- 41
2019-01-30 01:00:00 10 12 Noroeste 37 Noroeste 0 -- -- 42
2019-01-30 00:00:00 10.8 16 Noroeste 29 Norte 0 -- -- 40
2019-01-29 23:00:00 10 9 Noroeste 25 Noroeste 0 -- -- 48
2019-01-29 22:00:00 10.9 13 Noroeste 44 Oeste 0 -- -- 57
2019-01-29 21:00:00 11 13 Noroeste 32 Noroeste 0 -- -- 59
2019-01-29 20:00:00 11.2 11 Noroeste 37 Noroeste 0 -- -- 57
2019-01-29 19:00:00 12.1 15 Noroeste 39 Oeste 0 -- -- 52
2019-01-29 18:00:00 13.1 15 Noroeste 36 Noroeste 0 -- -- 46
2019-01-29 17:00:00 13.7 15 Noroeste 43 Noroeste 0 -- -- 45
2019-01-29 16:00:00 14.5 7 Nordeste 20 Oeste 0 -- -- 41
2019-01-29 15:00:00 14.9 5 Nordeste 19 Noroeste 0 -- -- 38
2019-01-29 14:00:00 13.9 5 Norte 14 Nordeste 0 -- -- 40
2019-01-29 13:00:00 12.1 8 Nordeste 13 Nordeste 0 -- -- 40
2019-01-29 12:00:00 11.5 3 Sudeste 9 Este 0 -- -- 41
2019-01-29 11:00:00 10.9 3 Sudeste 5 Sudeste 0 -- -- 46
2019-01-29 10:00:00 8.4 0 Calma 22 Norte 0 -- -- 51
2019-01-29 09:00:00 7.8 7 Norte 18 Noroeste 0 -- -- 50
2019-01-29 08:00:00 8.7 15 Noroeste 37 Norte 0 -- -- 47
2019-01-29 07:00:00 6.7 9 Noroeste 26 Norte 0 -- -- 53
2019-01-29 06:00:00 4.9 11 Noroeste 15 Noroeste 0 -- -- 59
2019-01-29 05:00:00 6.7 10 Noroeste 21 Norte 0 -- -- 53
2019-01-29 04:00:00 5.4 2 Noroeste 14 Norte 0 -- -- 56
2019-01-29 03:00:00 9 12 Norte 31 Norte 0 -- -- 43
2019-01-29 02:00:00 8.6 9 Norte 25 Noroeste 0 -- -- 46
2019-01-29 01:00:00 9 9 Noroeste 24 Noroeste 0 -- -- 46
2019-01-29 00:00:00 9.7 12 Noroeste 34 Noroeste 0 -- -- 47
2019-01-28 23:00:00 10.3 10 Noroeste 43 Norte 0 -- -- 45
2019-01-28 22:00:00 11.2 21 Norte 41 Norte 0 -- -- 41
2019-01-28 21:00:00 11.5 19 Noroeste 45 Noroeste 0 -- -- 44
2019-01-28 20:00:00 11.8 15 Noroeste 46 Noroeste 0 -- -- 46
2019-01-28 19:00:00 12.7 22 Noroeste 63 Norte 0 -- -- 39
2019-01-28 18:00:00 13.6 27 Noroeste 56 Noroeste 0 -- -- 34
2019-01-28 17:00:00 14.1 24 Noroeste 77 Norte 0 -- -- 33
2019-01-28 16:00:00 15.1 33 Noroeste 69 Noroeste 0 -- -- 30
2019-01-28 15:00:00 15.4 41 Norte 82 Norte 0 -- -- 29
2019-01-28 14:00:00 15.3 35 Norte 71 Norte 0 -- -- 32
2019-01-28 13:00:00 15.1 32 Norte 61 Norte 0 -- -- 33
2019-01-28 12:00:00 14.3 29 Norte 49 Norte 0 -- -- 33
2019-01-28 11:00:00 12.7 24 Norte 43 Noroeste 0 -- -- 37
2019-01-28 10:00:00 10.1 18 Noroeste 41 Noroeste 0 -- -- 44
2019-01-28 09:00:00 4.9 5 Noroeste 22 Norte 0 -- -- 58
2019-01-28 08:00:00 4.8 9 Norte 15 Norte 0 -- -- 57
2019-01-28 07:00:00 4.2 4 Noroeste 21 Norte 0 -- -- 59
2019-01-28 06:00:00 6.8 13 Norte 24 Noroeste 0 -- -- 49
2019-01-28 05:00:00 6.7 8 Noroeste 32 Noroeste 0 -- -- 49
2019-01-28 04:00:00 7.6 17 Noroeste 33 Noroeste 0 -- -- 45
2019-01-28 03:00:00 5.6 5 Oeste 21 Noroeste 0 -- -- 51
2019-01-28 02:00:00 5.3 3 Sudoeste 11 Noroeste 0 -- -- 56
2019-01-28 01:00:00 6.8 3 Noroeste 18 Noroeste 0 -- -- 51
2019-01-28 00:00:00 8.6 14 Noroeste 44 Noroeste 0 -- -- 45
2019-01-27 23:00:00 9.1 18 Noroeste 40 Noroeste 0 -- -- 44
2019-01-27 22:00:00 9.7 18 Norte 36 Noroeste 0 -- -- 45
2019-01-27 21:00:00 10.5 18 Norte 45 Norte 0 -- -- 41
2019-01-27 20:00:00 10.7 17 Noroeste 41 Noroeste 0 -- -- 38
2019-01-27 19:00:00 11 12 Noroeste 43 Noroeste 0 -- -- 36
2019-01-27 18:00:00 11.8 12 Noroeste 43 Noroeste 0 -- -- 36
2019-01-27 17:00:00 12.7 28 Norte 51 Noroeste 0 -- -- 33
2019-01-27 16:00:00 13.8 22 Norte 50 Norte 0 -- -- 34
2019-01-27 15:00:00 14.4 24 Norte 51 Noroeste 0 -- -- 34
2019-01-27 14:00:00 14.4 26 Norte 48 Norte 0 -- -- 36
2019-01-27 13:00:00 14.8 21 Norte 51 Nordeste 0 -- -- 35
2019-01-27 12:00:00 13.8 29 Norte 62 Norte 0 -- -- 38
2019-01-27 11:00:00 13 23 Norte 43 Noroeste 0 -- -- 42
2019-01-27 10:00:00 10.3 12 Noroeste 26 Noroeste 0 -- -- 46
2019-01-27 09:00:00 9.5 10 Noroeste 21 Norte 0 -- -- 43
2019-01-27 08:00:00 7.1 5 Oeste 14 Oeste 0 -- -- 50
2019-01-27 07:00:00 5.6 6 Oeste 15 Sudoeste 0 -- -- 59
2019-01-27 06:00:00 6.1 9 Oeste 16 Sudoeste 0 -- -- 50
2019-01-27 05:00:00 6.3 6 Sudoeste 14 Sudoeste 0 -- -- 49
2019-01-27 04:00:00 5.1 6 Sudoeste 17 Sudoeste 0 -- -- 54
2019-01-27 03:00:00 5.2 9 Sudoeste 16 Sudoeste 0 -- -- 54
2019-01-27 02:00:00 3.9 6 Sudoeste 16 Sudoeste 0 -- -- 67
2019-01-27 01:00:00 3.8 4 Oeste 12 Sudoeste 0 -- -- 77
2019-01-27 00:00:00 3.5 5 Sudoeste 13 Sudoeste 0 -- -- 80
2019-01-26 23:00:00 3.9 2 Sudoeste 7 Sudoeste 0 -- -- 82
2019-01-26 22:00:00 4.1 3 Oeste 12 Sudoeste 0 -- -- 84
2019-01-26 21:00:00 4.7 10 Sudoeste 14 Sudoeste 0 -- -- 83
2019-01-26 20:00:00 6.1 4 Sudoeste 14 Sudoeste 0 -- -- 78
2019-01-26 19:00:00 7 9 Sudoeste 15 Sudoeste 0 -- -- 78
2019-01-26 18:00:00 9.1 5 Sudoeste 10 Sudoeste 0 -- -- 72
2019-01-26 17:00:00 14.2 4 Sur 14 Sudeste 0 -- -- 53
2019-01-26 16:00:00 15.6 6 Sudeste 14 Sudeste 0 -- -- 49
2019-01-26 15:00:00 17.2 7 Sudeste 17 Este 0 -- -- 42
2019-01-26 14:00:00 17.5 8 Sudeste 14 Sudeste 0 -- -- 39
2019-01-26 13:00:00 17.4 7 Sudeste 12 Sudeste 0 -- -- 36
2019-01-26 12:00:00 16.4 4 Sudeste 9 Sudeste 0 -- -- 41
2019-01-26 11:00:00 11.6 4 Sudeste 9 Sudoeste 0 -- -- 59
2019-01-26 10:00:00 4.8 6 Sudoeste 11 Sudoeste 0 -- -- 78
2019-01-26 09:00:00 6.7 6 Sudoeste 11 Oeste 0 -- -- 65
2019-01-26 08:00:00 9.1 6 Oeste 18 Noroeste 0 -- -- 54
2019-01-26 07:00:00 9.2 5 Noroeste 23 Noroeste 0 -- -- 55
2019-01-26 06:00:00 9.5 12 Noroeste 24 Noroeste 0 -- -- 56
2019-01-26 05:00:00 9.5 11 Noroeste 25 Noroeste 0 -- -- 57
2019-01-26 04:00:00 9.2 6 Noroeste 27 Noroeste 0 -- -- 59
2019-01-26 03:00:00 9.8 12 Noroeste 27 Noroeste 0 -- -- 57
2019-01-26 02:00:00 10.1 13 Noroeste 38 Norte 0 -- -- 56
2019-01-26 01:00:00 10.5 19 Noroeste 46 Noroeste 0 -- -- 55
2019-01-26 00:00:00 10.9 18 Noroeste 40 Noroeste 0 -- -- 53
2019-01-25 23:00:00 11.1 12 Norte 46 Norte 0 -- -- 53
2019-01-25 22:00:00 11.3 21 Noroeste 39 Norte 0 -- -- 53
2019-01-25 21:00:00 11.9 14 Norte 44 Norte 0 -- -- 51
2019-01-25 20:00:00 12.6 22 Norte 42 Norte 0 -- -- 49
2019-01-25 19:00:00 13.3 19 Norte 35 Norte 0 -- -- 48
2019-01-25 18:00:00 13 3 Oeste 25 Norte 0 -- -- 50
2019-01-25 17:00:00 14.2 4 Norte 53 Noroeste 0 -- -- 47
2019-01-25 16:00:00 15.9 15 Norte 51 Noroeste 0 -- -- 43
2019-01-25 15:00:00 16.3 26 Norte 49 Noroeste 0 -- -- 41
2019-01-25 14:00:00 17 22 Norte 44 Norte 0 -- -- 41
2019-01-25 13:00:00 17.3 17 Norte 37 Norte 0 -- -- 40
2019-01-25 12:00:00 16.1 8 Nordeste 39 Noroeste 0 -- -- 44
2019-01-25 11:00:00 15 22 Norte 39 Noroeste 0 -- -- 47
2019-01-25 10:00:00 12.5 23 Noroeste 42 Noroeste 0 -- -- 55
2019-01-25 09:00:00 10.1 7 Oeste 26 Norte 0 -- -- 63
2019-01-25 08:00:00 10.2 13 Noroeste 29 Norte 0 -- -- 62
2019-01-25 07:00:00 10 10 Noroeste 32 Norte 0 -- -- 60
2019-01-25 06:00:00 10.6 21 Norte 39 Noroeste 0 -- -- 56
2019-01-25 05:00:00 9.8 19 Noroeste 35 Noroeste 0 -- -- 59
2019-01-25 04:00:00 9.8 16 Noroeste 33 Norte 0 -- -- 57
2019-01-25 03:00:00 9.2 16 Noroeste 33 Noroeste 0 -- -- 60
2019-01-25 02:00:00 9.1 14 Noroeste 33 Noroeste 0 -- -- 60
2019-01-25 01:00:00 9.1 15 Noroeste 34 Noroeste 0 -- -- 60
2019-01-25 00:00:00 9.2 19 Noroeste 44 Noroeste 0 -- -- 58
2019-01-24 23:00:00 9 21 Noroeste 41 Noroeste 0 -- -- 58
2019-01-24 22:00:00 8.7 19 Noroeste 35 Noroeste 0 -- -- 56
2019-01-24 21:00:00 8.8 21 Noroeste 46 Noroeste 0 -- -- 55
2019-01-24 20:00:00 8.9 20 Noroeste 40 Noroeste 0 -- -- 55
2019-01-24 19:00:00 8.9 19 Noroeste 39 Norte 0 -- -- 56
2019-01-24 18:00:00 9.5 15 Norte 51 Noroeste 0 -- -- 53
2019-01-24 17:00:00 10.4 16 Norte 46 Noroeste 0 -- -- 48
2019-01-24 16:00:00 10.4 20 Norte 45 Noroeste 0 -- -- 46
2019-01-24 15:00:00 10.3 23 Norte 49 Norte 0 -- -- 45
2019-01-24 14:00:00 9.9 27 Norte 55 Noroeste 0 -- -- 45
2019-01-24 13:00:00 10.5 26 Norte 54 Noroeste 0 -- -- 44
2019-01-24 12:00:00 11.5 18 Norte 48 Noroeste 0 -- -- 42
2019-01-24 11:00:00 10.5 26 Norte 54 Norte 0 -- -- 43
2019-01-24 10:00:00 8.6 19 Norte 45 Norte 0 -- -- 50
2019-01-24 09:00:00 8.5 22 Norte 61 Noroeste 0 -- -- 53
2019-01-24 08:00:00 9.1 24 Norte 60 Noroeste 0 -- -- 55
2019-01-24 07:00:00 9.9 37 Norte 68 Noroeste 0 -- -- 54
2019-01-24 06:00:00 9.8 33 Norte 54 Norte 0 -- -- 59
2019-01-24 05:00:00 9.8 26 Norte 54 Norte 0 -- -- 59
2019-01-24 04:00:00 10.3 32 Norte 67 Noroeste 0 -- -- 57
2019-01-24 03:00:00 11.3 35 Norte 62 Norte 0 -- -- 50
2019-01-24 02:00:00 11.8 33 Norte 63 Norte 0 -- -- 49
2019-01-24 01:00:00 12.2 33 Norte 60 Norte 0 -- -- 49
2019-01-24 00:00:00 12.8 29 Norte 66 Norte 0 -- -- 47